Time;durP1;ratioP1;P1;durP2;ratioP2;P2;SDS_P1;SDS_P2;PMS_P1;PMS_P2;Temp;Humidity;BMP_temperature;BMP_pressure;BME280_temperature;BME280_humidity;BME280_pressure;Samples;Min_cycle;Max_cycle;Signal;HPM_P1;HPM_P2
2021/11/20 05:01:05;;;;;;;25.93;19.10;;;7.80;99.90;;;;;;5765409;23;20503;-69
2021/11/20 05:03:33;;;;;;;27.87;19.33;;;7.80;99.90;;;;;;5016987;28;20468;-68
2021/11/20 05:06:00;;;;;;;25.80;19.23;;;7.80;99.90;;;;;;5017058;28;20507;-68
2021/11/20 05:08:28;;;;;;;24.90;18.93;;;7.70;99.90;;;;;;5017186;28;20872;-68
2021/11/20 05:10:56;;;;;;;29.40;19.47;;;7.70;99.90;;;;;;5016871;28;20823;-68
2021/11/20 05:13:25;;;;;;;25.10;18.70;;;7.70;99.90;;;;;;5017732;28;20453;-68
2021/11/20 05:15:53;;;;;;;24.90;18.13;;;7.70;99.90;;;;;;5016957;28;20438;-69
2021/11/20 05:18:21;;;;;;;23.67;18.60;;;7.70;99.90;;;;;;5016978;28;20453;-68
2021/11/20 05:20:48;;;;;;;24.00;18.70;;;7.60;99.90;;;;;;5016934;28;20500;-68
2021/11/20 05:23:16;;;;;;;23.40;17.23;;;7.70;99.90;;;;;;5016791;28;20477;-69
2021/11/20 05:25:43;;;;;;;24.00;18.20;;;7.70;99.90;;;;;;5016804;28;20960;-68
2021/11/20 05:28:10;;;;;;;23.70;18.03;;;7.70;99.90;;;;;;5017140;28;20455;-68
2021/11/20 05:30:39;;;;;;;25.63;17.87;;;7.70;99.90;;;;;;5016621;28;20477;-68
2021/11/20 05:33:10;;;;;;;23.00;18.27;;;7.70;99.90;;;;;;5020735;28;20456;-68
2021/11/20 05:35:38;;;;;;;23.70;16.63;;;7.70;99.90;;;;;;5038624;28;20430;-68
2021/11/20 05:38:06;;;;;;;22.43;18.20;;;7.70;99.90;;;;;;5038375;28;20460;-69
2021/11/20 05:40:33;;;;;;;23.17;17.93;;;7.70;99.90;;;;;;5038723;28;20462;-69
2021/11/20 05:43:03;;;;;;;23.10;18.43;;;7.80;99.90;;;;;;5038560;28;20497;-69
2021/11/20 05:45:33;;;;;;;20.00;15.43;;;7.80;99.90;;;;;;5038775;28;20441;-68
2021/11/20 05:48:00;;;;;;;24.33;18.07;;;7.70;99.90;;;;;;5038882;28;20449;-68
2021/11/20 05:50:28;;;;;;;23.50;16.40;;;7.70;99.90;;;;;;5038658;28;20454;-69
2021/11/20 05:52:57;;;;;;;22.37;16.17;;;7.70;99.90;;;;;;5036315;28;20434;-69
2021/11/20 05:55:26;;;;;;;21.97;15.60;;;7.70;99.90;;;;;;5038163;28;20453;-69
2021/11/20 05:57:53;;;;;;;24.60;17.10;;;7.70;99.90;;;;;;5038254;28;20433;-68
2021/11/20 06:00:23;;;;;;;20.77;16.30;;;7.70;99.90;;;;;;5030204;28;20449;-69
2021/11/20 06:02:50;;;;;;;19.20;14.80;;;7.70;99.90;;;;;;5037790;28;20465;-69
2021/11/20 06:05:17;;;;;;;23.93;16.77;;;7.70;99.90;;;;;;5037801;28;20468;-69
2021/11/20 06:07:44;;;;;;;22.07;17.20;;;7.60;99.90;;;;;;5037997;28;20481;-69
2021/11/20 06:10:12;;;;;;;20.23;15.80;;;7.70;99.90;;;;;;5038520;28;20433;-69
2021/11/20 06:12:39;;;;;;;20.40;16.93;;;7.60;99.90;;;;;;5038465;28;20469;-69
2021/11/20 06:15:06;;;;;;;22.37;17.13;;;7.60;99.90;;;;;;5038267;28;20453;-68
2021/11/20 06:17:33;;;;;;;20.93;16.23;;;7.60;99.90;;;;;;5038512;28;20433;-68
2021/11/20 06:20:00;;;;;;;21.23;16.30;;;7.60;99.90;;;;;;5037951;28;20485;-68
2021/11/20 06:22:27;;;;;;;20.60;15.80;;;7.70;99.90;;;;;;5036891;28;20504;-69
2021/11/20 06:24:54;;;;;;;21.97;17.50;;;7.70;99.90;;;;;;5034970;28;20446;-69
2021/11/20 06:27:22;;;;;;;21.83;15.57;;;7.70;99.90;;;;;;5037244;28;20484;-69
2021/11/20 06:29:49;;;;;;;20.83;14.53;;;7.70;99.90;;;;;;5037903;28;20480;-68
2021/11/20 06:32:16;;;;;;;21.77;15.60;;;7.80;99.90;;;;;;5037763;28;20466;-68
2021/11/20 06:34:43;;;;;;;19.70;14.90;;;7.80;99.90;;;;;;5037990;28;20441;-69
2021/11/20 06:37:10;;;;;;;17.73;15.43;;;7.80;99.90;;;;;;5037999;28;20445;-69
2021/11/20 06:39:38;;;;;;;19.33;14.80;;;7.90;99.90;;;;;;5036851;28;20433;-69
2021/11/20 06:42:05;;;;;;;18.30;15.27;;;7.80;99.90;;;;;;5036587;28;20534;-68
2021/11/20 06:44:34;;;;;;;20.57;15.13;;;7.90;99.90;;;;;;5037954;28;20470;-69
2021/11/20 06:47:00;;;;;;;20.13;14.90;;;7.90;99.90;;;;;;5034828;28;20484;-68
2021/11/20 06:49:27;;;;;;;19.97;16.10;;;7.90;99.90;;;;;;5037511;28;20441;-69
2021/11/20 06:51:54;;;;;;;19.90;14.80;;;7.90;99.90;;;;;;5036255;28;20453;-68
2021/11/20 06:54:21;;;;;;;17.47;15.00;;;7.90;99.90;;;;;;5035956;28;20472;-68
2021/11/20 06:56:52;;;;;;;19.30;14.67;;;8.00;99.90;;;;;;5037157;28;20450;-68
2021/11/20 07:02:03;;;;;;;19.70;16.27;;;7.90;99.90;;;;;;5037421;28;20472;-68
2021/11/20 07:04:30;;;;;;;18.53;15.97;;;7.90;99.90;;;;;;5038054;28;20436;-68
2021/11/20 07:06:59;;;;;;;17.77;15.60;;;7.90;99.90;;;;;;5038275;28;20436;-67
2021/11/20 07:09:26;;;;;;;20.35;15.52;;;8.00;99.90;;;;;;5037793;28;20439;-69
2021/11/20 07:11:53;;;;;;;17.40;14.47;;;8.00;99.90;;;;;;5034056;28;20226;-68
2021/11/20 07:14:20;;;;;;;18.40;14.50;;;8.10;99.90;;;;;;5037414;28;20433;-68
2021/11/20 07:16:47;;;;;;;20.13;15.70;;;8.10;99.90;;;;;;5035751;28;20468;-68
2021/11/20 07:19:15;;;;;;;21.80;16.37;;;8.10;99.90;;;;;;5035008;28;20449;-69
2021/11/20 07:21:42;;;;;;;20.67;15.70;;;8.10;99.90;;;;;;5038139;28;20488;-69
2021/11/20 07:24:11;;;;;;;18.40;14.80;;;8.10;99.90;;;;;;5037670;28;20472;-69
2021/11/20 07:26:38;;;;;;;18.33;15.23;;;8.20;99.90;;;;;;5031297;28;20453;-68
2021/11/20 07:29:06;;;;;;;22.17;16.43;;;8.10;99.90;;;;;;5034313;28;20453;-70
2021/11/20 07:31:33;;;;;;;18.23;14.80;;;8.20;99.90;;;;;;5037671;28;20482;-69
2021/11/20 07:34:00;;;;;;;20.23;15.57;;;8.20;99.90;;;;;;5036798;28;20492;-71
2021/11/20 07:36:28;;;;;;;21.00;16.00;;;8.20;99.90;;;;;;5037443;28;20433;-70
2021/11/20 07:39:00;;;;;;;22.70;16.13;;;8.30;99.90;;;;;;5036767;28;20464;-70
2021/11/20 07:41:28;;;;;;;21.80;15.77;;;8.30;99.90;;;;;;5037463;28;20492;-70
2021/11/20 07:43:55;;;;;;;18.93;15.30;;;8.20;99.90;;;;;;5037567;28;20458;-71
2021/11/20 07:46:21;;;;;;;20.43;16.20;;;8.30;99.90;;;;;;5037594;28;20441;-70
2021/11/20 07:48:50;;;;;;;22.67;16.40;;;8.20;99.90;;;;;;5037501;28;20472;-70
2021/11/20 07:51:18;;;;;;;21.20;16.10;;;8.30;99.90;;;;;;5037817;28;20520;-70
2021/11/20 07:53:48;;;;;;;20.40;15.40;;;8.30;99.90;;;;;;5036056;28;20441;-71
2021/11/20 07:56:16;;;;;;;19.30;15.30;;;8.20;99.90;;;;;;5034852;28;20493;-70
2021/11/20 07:58:43;;;;;;;19.50;15.63;;;8.30;99.90;;;;;;5033758;28;20456;-71
2021/11/20 08:01:11;;;;;;;19.60;15.93;;;8.40;99.90;;;;;;5034300;28;20485;-70
2021/11/20 08:03:39;;;;;;;19.73;15.70;;;8.50;99.90;;;;;;5036262;28;20489;-72
2021/11/20 08:06:06;;;;;;;22.50;16.43;;;8.60;99.90;;;;;;5040442;28;20414;-69
2021/11/20 08:08:33;;;;;;;19.57;15.70;;;8.60;99.90;;;;;;5041029;28;20433;-70
2021/11/20 08:11:01;;;;;;;17.37;15.07;;;8.70;99.90;;;;;;5040957;28;20465;-69
2021/11/20 08:13:29;;;;;;;21.60;16.50;;;8.80;99.90;;;;;;5040958;28;20492;-68
2021/11/20 08:15:56;;;;;;;19.67;15.20;;;8.80;99.90;;;;;;5041147;28;20433;-68
2021/11/20 08:18:23;;;;;;;24.47;15.30;;;8.80;99.90;;;;;;5041072;28;20507;-69
2021/11/20 08:20:49;;;;;;;17.00;13.83;;;8.90;99.90;;;;;;5040340;28;20462;-69
2021/11/20 08:23:16;;;;;;;18.20;14.87;;;8.90;99.90;;;;;;5039284;28;20481;-69
2021/11/20 08:25:46;;;;;;;16.90;14.30;;;9.00;99.90;;;;;;5040479;28;20453;-70
2021/11/20 08:28:16;;;;;;;19.13;14.43;;;9.00;99.90;;;;;;5040792;28;20430;-69
2021/11/20 08:30:43;;;;;;;16.20;14.50;;;9.10;99.90;;;;;;5039981;28;20473;-70
2021/11/20 08:33:10;;;;;;;18.20;14.90;;;9.10;99.90;;;;;;5039977;28;20441;-70
2021/11/20 08:35:38;;;;;;;18.10;13.77;;;9.20;99.90;;;;;;5039256;28;20446;-70
2021/11/20 08:38:06;;;;;;;17.30;15.50;;;9.30;99.90;;;;;;5038922;28;20451;-70
2021/11/20 08:40:34;;;;;;;17.10;14.60;;;9.30;99.90;;;;;;5038327;28;20461;-70
2021/11/20 08:43:01;;;;;;;20.73;14.47;;;9.40;99.90;;;;;;5038925;28;20461;-70
2021/11/20 08:45:33;;;;;;;16.67;14.37;;;9.50;99.90;;;;;;5032531;28;20480;-70
2021/11/20 08:48:00;;;;;;;17.43;14.73;;;9.40;99.90;;;;;;5020767;28;20952;-70
2021/11/20 08:50:30;;;;;;;19.13;16.23;;;9.50;99.90;;;;;;5020553;28;20453;-70
2021/11/20 08:52:57;;;;;;;18.10;15.27;;;9.50;99.90;;;;;;5033975;28;20480;-69
2021/11/20 08:55:24;;;;;;;17.57;15.10;;;9.60;99.90;;;;;;5030540;28;20457;-70
2021/11/20 08:57:51;;;;;;;18.20;15.37;;;9.60;99.90;;;;;;5023892;28;20454;-70
2021/11/20 09:00:23;;;;;;;21.37;16.33;;;9.70;99.90;;;;;;5023615;28;20461;-70
2021/11/20 09:02:55;;;;;;;19.93;16.40;;;9.70;99.90;;;;;;5019575;28;20535;-69
2021/11/20 09:05:29;;;;;;;18.50;16.50;;;9.70;99.90;;;;;;5019350;28;20442;-69
2021/11/20 09:08:03;;;;;;;18.07;16.07;;;9.70;99.90;;;;;;5023847;28;20433;-70
2021/11/20 09:10:34;;;;;;;17.40;15.37;;;9.70;99.90;;;;;;5020359;28;20459;-70
2021/11/20 09:13:04;;;;;;;19.87;16.00;;;9.50;99.90;;;;;;5019242;28;20438;-70
2021/11/20 09:15:36;;;;;;;18.20;15.23;;;9.50;99.90;;;;;;5020087;28;20445;-70
2021/11/20 09:18:04;;;;;;;20.93;18.67;;;9.40;99.90;;;;;;5020532;28;20800;-69
2021/11/20 09:20:32;;;;;;;18.90;15.87;;;9.30;99.90;;;;;;5020159;28;20453;-69
2021/11/20 09:23:00;;;;;;;22.30;17.47;;;9.40;99.90;;;;;;5018803;28;21028;-70
2021/11/20 09:25:27;;;;;;;19.93;16.00;;;9.40;99.90;;;;;;5020147;28;20453;-69
2021/11/20 09:27:53;;;;;;;25.50;17.93;;;9.50;99.90;;;;;;5019410;28;20457;-70
2021/11/20 09:30:22;;;;;;;22.43;15.87;;;9.50;99.90;;;;;;5019798;28;20980;-69
2021/11/20 09:32:49;;;;;;;22.90;16.53;;;9.50;99.90;;;;;;5020205;28;20460;-69
2021/11/20 09:35:17;;;;;;;23.73;15.47;;;9.50;99.90;;;;;;5018522;28;20507;-70
2021/11/20 09:37:44;;;;;;;21.33;17.30;;;9.50;99.90;;;;;;5019871;28;20456;-71
2021/11/20 09:40:12;;;;;;;24.50;16.60;;;9.60;99.90;;;;;;5019644;28;20982;-70
2021/11/20 09:42:42;;;;;;;18.40;16.37;;;9.60;99.90;;;;;;5018409;28;20461;-69
2021/11/20 09:45:12;;;;;;;19.43;15.73;;;9.60;99.90;;;;;;5021312;28;20492;-70
2021/11/20 09:47:44;;;;;;;18.17;14.10;;;9.50;99.90;;;;;;5020838;28;20487;-70
2021/11/20 09:50:15;;;;;;;18.20;15.40;;;9.50;99.90;;;;;;5019794;28;20437;-69
2021/11/20 09:52:45;;;;;;;19.27;15.40;;;9.50;99.90;;;;;;5020327;28;20448;-69
2021/11/20 09:55:15;;;;;;;18.73;15.30;;;9.50;99.90;;;;;;5021169;28;20469;-69
2021/11/20 09:57:46;;;;;;;18.30;15.87;;;9.60;99.90;;;;;;5020646;28;20460;-70
2021/11/20 10:00:42;;;;;;;19.03;15.83;;;9.60;99.90;;;;;;5021352;28;20445;-69
2021/11/20 10:03:12;;;;;;;19.50;15.57;;;9.50;99.90;;;;;;5000795;28;20524;-69
2021/11/20 10:05:41;;;;;;;22.67;15.70;;;9.50;99.90;;;;;;5019198;28;20511;-70
2021/11/20 10:08:13;;;;;;;19.00;15.27;;;9.60;99.90;;;;;;5021356;28;20453;-70
2021/11/20 10:10:43;;;;;;;18.47;14.53;;;9.60;99.90;;;;;;5021967;28;20480;-69
2021/11/20 10:13:13;;;;;;;21.60;16.60;;;9.60;99.90;;;;;;5020273;28;20933;-69
2021/11/20 10:15:44;;;;;;;18.03;14.77;;;9.70;99.90;;;;;;5020133;28;20453;-70
2021/11/20 10:18:24;;;;;;;16.43;14.00;;;9.70;99.90;;;;;;5019069;28;20464;-71
2021/11/20 10:20:54;;;;;;;17.20;15.40;;;9.80;99.90;;;;;;5018345;28;20477;-70
2021/11/20 10:23:48;;;;;;;17.00;13.87;;;9.70;99.90;;;;;;5021131;28;20864;-70
2021/11/20 10:26:36;;;;;;;13.60;12.00;;;9.70;99.90;;;;;;5010740;28;20524;-70
2021/11/20 10:29:21;;;;;;;13.37;10.90;;;9.80;99.90;;;;;;5018615;28;20438;-70
2021/11/20 10:31:51;;;;;;;15.20;12.50;;;9.90;99.90;;;;;;5021292;28;20473;-70
2021/11/20 10:34:33;;;;;;;16.70;14.07;;;9.90;99.90;;;;;;5024820;28;20442;-70
2021/11/20 10:37:03;;;;;;;15.40;13.23;;;10.00;99.90;;;;;;5032216;28;20439;-70
2021/11/20 10:39:46;;;;;;;14.07;12.20;;;10.00;99.90;;;;;;5021684;28;20430;-70
2021/11/20 10:42:16;;;;;;;18.63;14.10;;;10.00;99.90;;;;;;5017693;28;20477;-70
2021/11/20 10:44:47;;;;;;;14.27;12.63;;;10.10;99.90;;;;;;5017177;28;20474;-70
2021/11/20 10:47:41;;;;;;;10.50;9.40;;;10.20;99.90;;;;;;5018456;28;20442;-71
2021/11/20 10:50:20;;;;;;;11.43;10.23;;;10.40;99.90;;;;;;5018502;28;20433;-70
2021/11/20 10:53:17;;;;;;;13.60;11.47;;;10.40;99.90;;;;;;5024164;28;20441;-70
2021/11/20 10:55:52;;;;;;;13.33;11.93;;;10.50;99.90;;;;;;5025540;28;20472;-71
2021/11/20 10:58:59;;;;;;;12.93;11.63;;;10.50;99.90;;;;;;5029342;28;20437;-70
2021/11/20 11:01:59;;;;;;;13.73;12.27;;;10.50;99.90;;;;;;5023054;28;20484;-70
2021/11/20 11:04:57;;;;;;;14.27;11.90;;;10.40;99.90;;;;;;5035388;28;20469;-70
2021/11/20 11:07:28;;;;;;;15.27;11.83;;;10.30;99.90;;;;;;5037752;28;20440;-70
2021/11/20 11:09:58;;;;;;;11.13;9.93;;;10.40;99.90;;;;;;5037819;28;20576;-70
2021/11/20 11:12:38;;;;;;;12.93;10.80;;;10.40;99.90;;;;;;5035245;28;20477;-70
2021/11/20 11:15:25;;;;;;;14.87;9.70;;;10.40;99.90;;;;;;5027076;28;20468;-70
2021/11/20 11:18:19;;;;;;;8.40;7.20;;;10.30;99.90;;;;;;5027606;28;20449;-70
2021/11/20 11:21:24;;;;;;;7.20;6.60;;;10.30;99.90;;;;;;5025285;28;20473;-69
2021/11/20 11:24:17;;;;;;;7.57;6.87;;;10.30;99.90;;;;;;5022948;28;20481;-69
2021/11/20 11:26:51;;;;;;;9.13;7.83;;;10.30;99.90;;;;;;5022979;28;20446;-70
2021/11/20 11:29:27;;;;;;;7.67;6.97;;;10.30;99.90;;;;;;5025335;28;20437;-69
2021/11/20 11:31:54;;;;;;;8.17;7.47;;;10.30;99.90;;;;;;5026333;28;21026;-69
2021/11/20 11:34:24;;;;;;;8.00;7.20;;;10.30;99.90;;;;;;5025866;28;20449;-69
2021/11/20 11:36:55;;;;;;;8.93;8.10;;;10.40;99.90;;;;;;5025054;28;20444;-69
2021/11/20 11:39:38;;;;;;;11.20;10.03;;;10.30;99.90;;;;;;5026411;28;20438;-70
2021/11/20 11:42:29;;;;;;;11.57;10.37;;;10.30;99.90;;;;;;5030371;28;20504;-68
2021/11/20 11:45:08;;;;;;;10.50;9.40;;;10.30;99.90;;;;;;5025868;28;20480;-69
2021/11/20 11:47:46;;;;;;;12.10;9.80;;;10.30;99.90;;;;;;5029021;28;20433;-69
2021/11/20 11:50:30;;;;;;;12.23;10.83;;;10.20;99.90;;;;;;5027847;28;20461;-69
2021/11/20 11:53:10;;;;;;;11.50;10.13;;;10.10;99.90;;;;;;5026573;28;20441;-69
2021/11/20 11:55:47;;;;;;;12.63;9.80;;;10.00;99.90;;;;;;5026906;28;20437;-69
2021/11/20 11:58:49;;;;;;;11.63;10.43;;;10.10;99.90;;;;;;5024400;28;20800;-69
2021/11/20 12:01:20;;;;;;;10.63;9.53;;;10.00;99.90;;;;;;5025411;28;20484;-69
2021/11/20 12:04:00;;;;;;;12.03;9.73;;;10.10;99.90;;;;;;5024296;28;20469;-69
2021/11/20 12:06:40;;;;;;;12.20;10.87;;;9.90;99.90;;;;;;5027797;28;20503;-69
2021/11/20 12:09:27;;;;;;;13.30;11.90;;;9.90;99.90;;;;;;5027541;28;20449;-69
2021/11/20 12:12:05;;;;;;;12.03;10.20;;;9.90;99.90;;;;;;5032877;28;20481;-68
2021/11/20 12:14:37;;;;;;;11.53;9.57;;;10.00;99.90;;;;;;5034245;28;20434;-69
2021/11/20 12:17:31;;;;;;;10.53;9.47;;;10.00;99.90;;;;;;5034059;28;20453;-70
2021/11/20 12:20:19;;;;;;;11.57;10.17;;;10.00;99.90;;;;;;5031366;28;20449;-70
2021/11/20 12:22:55;;;;;;;11.60;9.70;;;10.10;99.90;;;;;;5032536;28;20456;-68
2021/11/20 12:25:27;;;;;;;10.43;8.90;;;10.20;99.90;;;;;;5034067;28;20451;-67
2021/11/20 12:27:58;;;;;;;11.33;9.67;;;10.20;99.90;;;;;;5034588;28;20441;-68
2021/11/20 12:30:36;;;;;;;11.00;8.57;;;10.20;99.90;;;;;;5033029;28;20433;-68
2021/11/20 12:33:17;;;;;;;13.90;9.60;;;10.10;99.90;;;;;;5020761;28;20448;-69
2021/11/20 12:35:57;;;;;;;10.83;9.30;;;10.10;99.90;;;;;;5019381;28;20865;-67
2021/11/20 12:38:37;;;;;;;10.10;9.20;;;10.10;99.90;;;;;;5019455;28;20469;-65
2021/11/20 12:41:20;;;;;;;10.30;8.10;;;10.10;99.90;;;;;;5020635;28;20480;-65
2021/11/20 12:44:09;;;;;;;9.50;8.03;;;10.40;99.90;;;;;;5019964;28;20468;-66
2021/11/20 12:47:14;;;;;;;9.37;8.20;;;10.40;99.90;;;;;;5021270;28;20976;-65
2021/11/20 12:49:46;;;;;;;8.83;7.50;;;10.60;99.90;;;;;;5020515;28;20580;-66
2021/11/20 12:52:26;;;;;;;7.70;7.10;;;10.80;99.90;;;;;;5018783;28;20477;-65
2021/11/20 12:54:59;;;;;;;8.30;7.50;;;10.70;99.90;;;;;;5021230;28;20488;-68
2021/11/20 12:57:40;;;;;;;9.47;8.27;;;10.60;99.90;;;;;;5019697;28;20430;-67
2021/11/20 13:00:15;;;;;;;9.53;8.63;;;10.50;99.90;;;;;;5021704;28;20442;-68
2021/11/20 13:02:46;;;;;;;9.30;8.40;;;10.50;99.90;;;;;;5020239;28;20440;-69
2021/11/20 13:05:23;;;;;;;8.47;7.70;;;10.10;99.90;;;;;;5019980;28;20967;-67
2021/11/20 13:07:53;;;;;;;9.37;7.80;;;10.10;99.90;;;;;;5035494;28;20430;-68
2021/11/20 13:10:30;;;;;;;9.73;8.60;;;10.00;99.90;;;;;;5022616;28;20468;-68
2021/11/20 13:13:00;;;;;;;8.70;7.80;;;9.90;99.90;;;;;;5019657;28;20489;-68
2021/11/20 13:15:47;;;;;;;9.87;7.93;;;9.80;99.90;;;;;;5018293;28;20452;-69
2021/11/20 13:18:20;;;;;;;10.77;8.73;;;9.90;99.90;;;;;;5019012;28;20468;-69
2021/11/20 13:20:59;;;;;;;8.50;7.80;;;10.00;99.90;;;;;;5018697;28;20480;-67
2021/11/20 13:23:28;;;;;;;9.80;8.87;;;10.10;99.90;;;;;;5018735;28;20441;-68
2021/11/20 13:26:14;;;;;;;11.97;9.23;;;10.10;99.90;;;;;;5021253;28;20484;-69
2021/11/20 13:28:45;;;;;;;10.80;9.80;;;10.00;99.90;;;;;;5026606;28;20438;-68
2021/11/20 13:31:17;;;;;;;11.70;10.57;;;10.00;99.90;;;;;;5018027;28;21039;-69
2021/11/20 13:33:45;;;;;;;10.80;9.80;;;9.90;99.90;;;;;;5018229;28;20438;-68
2021/11/20 13:36:12;;;;;;;10.80;9.80;;;9.70;99.90;;;;;;5017886;28;20460;-68
2021/11/20 13:38:39;;;;;;;10.43;9.40;;;9.70;99.90;;;;;;5020624;28;20465;-68
2021/11/20 13:41:06;;;;;;;10.90;9.23;;;9.70;99.90;;;;;;5019656;28;20481;-68
2021/11/20 13:43:35;;;;;;;8.60;7.80;;;9.70;99.90;;;;;;5018739;28;20544;-68
2021/11/20 13:46:08;;;;;;;10.43;9.47;;;9.70;99.90;;;;;;5018502;28;20481;-68
2021/11/20 13:48:36;;;;;;;10.47;9.43;;;9.50;99.90;;;;;;5019417;28;20444;-68
2021/11/20 13:51:14;;;;;;;11.40;10.00;;;9.60;99.90;;;;;;5018661;28;20481;-68
2021/11/20 13:53:42;;;;;;;10.63;9.57;;;9.60;99.90;;;;;;5018332;28;20469;-68
2021/11/20 13:56:09;;;;;;;11.30;10.13;;;9.70;99.90;;;;;;5018514;28;20454;-67
2021/11/20 13:58:38;;;;;;;11.77;10.40;;;9.70;99.90;;;;;;5017568;28;20817;-68
2021/11/20 14:01:16;;;;;;;10.57;9.57;;;9.70;99.90;;;;;;5016927;28;20489;-68
2021/11/20 14:03:51;;;;;;;11.30;10.20;;;9.60;99.90;;;;;;5016840;28;20511;-68
2021/11/20 14:06:18;;;;;;;11.70;10.60;;;9.50;99.90;;;;;;5017212;28;20551;-68
2021/11/20 14:08:45;;;;;;;15.00;10.97;;;9.50;99.90;;;;;;5017557;28;20483;-68
2021/11/20 14:11:17;;;;;;;12.00;10.90;;;9.40;99.90;;;;;;5016934;28;20976;-68
2021/11/20 14:13:49;;;;;;;13.63;12.37;;;9.30;99.90;;;;;;5017318;28;20804;-68
2021/11/20 14:16:28;;;;;;;12.57;11.37;;;9.30;99.90;;;;;;5017284;28;20437;-69
2021/11/20 14:18:55;;;;;;;11.97;10.70;;;9.30;99.90;;;;;;5019908;28;20437;-68
2021/11/20 14:21:25;;;;;;;11.63;10.50;;;9.30;99.90;;;;;;5023002;28;20484;-69
2021/11/20 14:23:58;;;;;;;18.53;12.53;;;9.30;99.90;;;;;;5017687;28;20442;-68
2021/11/20 14:26:25;;;;;;;11.63;10.53;;;9.30;99.90;;;;;;5021599;28;20483;-68
2021/11/20 14:28:52;;;;;;;12.00;10.07;;;9.10;99.90;;;;;;5037845;28;20454;-68
2021/11/20 14:31:23;;;;;;;13.70;11.10;;;9.10;99.90;;;;;;5038283;28;20476;-68
2021/11/20 14:33:53;;;;;;;11.93;10.67;;;9.20;99.90;;;;;;5038473;28;20460;-68
2021/11/20 14:36:30;;;;;;;10.70;9.10;;;9.20;99.90;;;;;;5037347;28;20449;-69
2021/11/20 14:38:57;;;;;;;12.17;10.90;;;9.30;99.90;;;;;;5037516;28;20457;-68
2021/11/20 14:41:34;;;;;;;13.83;11.40;;;9.30;99.90;;;;;;5037920;28;20484;-68
2021/11/20 14:44:01;;;;;;;13.33;11.00;;;9.30;99.90;;;;;;5038457;28;20417;-69
2021/11/20 14:46:30;;;;;;;11.83;10.50;;;9.30;99.90;;;;;;5038483;28;20477;-69
2021/11/20 14:49:02;;;;;;;12.90;11.63;;;9.30;99.90;;;;;;5038314;28;20433;-69
2021/11/20 14:51:40;;;;;;;15.43;11.87;;;9.30;99.90;;;;;;5035324;28;20461;-69
2021/11/20 14:54:16;;;;;;;12.93;11.57;;;9.20;99.90;;;;;;5020656;28;20433;-68
2021/11/20 14:56:44;;;;;;;15.03;11.70;;;9.20;99.90;;;;;;5018199;28;20912;-68
2021/11/20 14:59:13;;;;;;;13.57;12.17;;;9.10;99.90;;;;;;5018341;28;20449;-69
2021/11/20 15:01:42;;;;;;;11.63;10.43;;;9.00;99.90;;;;;;5020149;28;20572;-69
2021/11/20 15:04:09;;;;;;;15.50;11.73;;;9.00;99.90;;;;;;5019812;28;20457;-68
2021/11/20 15:06:37;;;;;;;12.67;11.20;;;9.00;99.90;;;;;;5017998;28;20482;-68
2021/11/20 15:09:05;;;;;;;12.70;10.30;;;8.90;99.90;;;;;;5016785;28;20457;-68
2021/11/20 15:11:32;;;;;;;12.53;11.10;;;8.90;99.90;;;;;;5017321;28;20473;-68
2021/11/20 15:14:00;;;;;;;13.63;11.50;;;8.90;99.90;;;;;;5021530;28;20454;-68
2021/11/20 15:16:27;;;;;;;11.27;10.10;;;8.90;99.90;;;;;;5028199;28;20449;-69
2021/11/20 15:18:55;;;;;;;13.77;11.40;;;8.90;99.90;;;;;;5025919;28;20457;-68
2021/11/20 15:21:22;;;;;;;13.67;11.67;;;8.90;99.90;;;;;;5027320;28;20501;-68
2021/11/20 15:23:49;;;;;;;12.10;10.80;;;8.90;99.90;;;;;;5029027;28;20497;-68
2021/11/20 15:26:16;;;;;;;11.87;10.67;;;8.90;99.90;;;;;;5029435;28;20633;-68
2021/11/20 15:28:43;;;;;;;15.43;12.50;;;8.90;99.90;;;;;;5027014;28;20457;-68
2021/11/20 15:31:10;;;;;;;12.40;11.30;;;9.00;99.90;;;;;;5025334;28;20469;-69
2021/11/20 15:33:37;;;;;;;12.83;10.30;;;9.00;99.90;;;;;;5026046;28;20548;-69
2021/11/20 15:36:05;;;;;;;12.93;10.20;;;8.80;99.90;;;;;;5024276;28;20453;-68
2021/11/20 15:38:32;;;;;;;11.33;9.80;;;8.80;99.90;;;;;;5023984;28;20856;-68
2021/11/20 15:40:59;;;;;;;11.73;10.27;;;8.80;99.90;;;;;;5029559;28;20481;-68
2021/11/20 15:43:26;;;;;;;22.33;19.20;;;8.70;99.90;;;;;;5029942;28;20507;-69
2021/11/20 15:45:53;;;;;;;15.77;11.77;;;8.80;99.90;;;;;;5020525;28;20527;-68
2021/11/20 15:48:20;;;;;;;11.10;10.00;;;8.80;99.90;;;;;;5018867;28;20481;-68
2021/11/20 15:50:46;;;;;;;14.17;11.73;;;8.80;99.90;;;;;;5018007;28;20477;-68
2021/11/20 15:53:14;;;;;;;11.00;10.00;;;8.80;99.90;;;;;;5018293;28;20540;-68
2021/11/20 15:55:41;;;;;;;11.37;10.37;;;8.70;99.90;;;;;;5017737;28;20949;-68
2021/11/20 15:58:08;;;;;;;12.50;10.67;;;8.70;99.90;;;;;;5017837;28;20457;-68
2021/11/20 16:00:35;;;;;;;11.73;10.60;;;8.70;99.90;;;;;;5017770;28;20473;-69
2021/11/20 16:03:01;;;;;;;12.20;11.00;;;8.70;99.90;;;;;;5017840;28;20441;-68
2021/11/20 16:05:28;;;;;;;11.73;10.50;;;8.70;99.90;;;;;;5017570;28;20484;-68
2021/11/20 16:07:55;;;;;;;11.10;10.13;;;8.70;99.90;;;;;;5017500;28;20531;-68
2021/11/20 16:10:23;;;;;;;11.70;10.50;;;8.70;99.90;;;;;;5018281;28;20461;-69
2021/11/20 16:12:49;;;;;;;14.90;12.20;;;8.70;99.90;;;;;;5020471;28;20456;-68
2021/11/20 16:15:16;;;;;;;13.10;11.63;;;8.70;99.90;;;;;;5018146;28;20453;-68
2021/11/20 16:17:43;;;;;;;12.03;10.83;;;8.70;99.90;;;;;;5017867;28;20446;-68
2021/11/20 16:20:11;;;;;;;11.97;10.43;;;8.70;99.90;;;;;;5017577;28;20449;-68
2021/11/20 16:22:38;;;;;;;13.63;12.20;;;8.60;99.90;;;;;;5017744;28;20897;-68
2021/11/20 16:25:06;;;;;;;14.87;12.67;;;8.60;99.90;;;;;;5017389;28;20538;-69
2021/11/20 16:27:34;;;;;;;13.00;10.90;;;8.70;99.90;;;;;;5016851;28;20503;-68
2021/11/20 16:30:02;;;;;;;14.33;11.27;;;8.70;99.90;;;;;;5017772;28;20576;-68
2021/11/20 16:32:29;;;;;;;14.90;13.30;;;8.70;99.90;;;;;;5018469;28;20472;-68
2021/11/20 16:34:56;;;;;;;13.10;11.10;;;8.70;99.90;;;;;;5018184;28;20846;-68
2021/11/20 16:37:22;;;;;;;13.10;11.80;;;8.70;99.90;;;;;;5018226;28;20457;-68
2021/11/20 16:39:49;;;;;;;15.93;14.23;;;8.70;99.90;;;;;;5019049;28;20489;-71
2021/11/20 16:42:16;;;;;;;13.20;11.90;;;8.70;99.90;;;;;;5018864;28;20531;-68
2021/11/20 16:44:44;;;;;;;14.10;12.80;;;8.70;99.90;;;;;;5018462;28;20458;-67
2021/11/20 16:47:11;;;;;;;13.33;12.03;;;8.80;99.90;;;;;;5020591;28;20453;-67
2021/11/20 16:49:38;;;;;;;12.87;11.57;;;8.80;99.90;;;;;;5018699;28;20458;-69
2021/11/20 16:52:17;;;;;;;13.40;11.20;;;8.80;99.90;;;;;;5021506;28;20477;-70
2021/11/20 16:54:43;;;;;;;12.40;11.20;;;8.80;99.90;;;;;;5019612;28;20842;-70
2021/11/20 16:57:13;;;;;;;11.93;10.77;;;8.80;99.90;;;;;;5018447;28;20929;-69
2021/11/20 16:59:40;;;;;;;11.40;10.30;;;8.80;99.90;;;;;;5019079;28;20464;-69
2021/11/20 17:02:08;;;;;;;10.60;9.50;;;8.80;99.90;;;;;;5018121;28;20488;-68
2021/11/20 17:04:35;;;;;;;11.27;10.10;;;8.70;99.90;;;;;;5017255;28;20453;-68
2021/11/20 17:07:03;;;;;;;10.90;9.90;;;8.70;99.90;;;;;;5017693;28;20484;-68
2021/11/20 17:09:30;;;;;;;10.70;9.60;;;8.60;99.90;;;;;;5018816;28;20457;-68
2021/11/20 17:11:57;;;;;;;11.97;10.60;;;8.50;99.90;;;;;;5017152;28;20977;-68
2021/11/20 17:14:24;;;;;;;10.90;9.50;;;8.40;99.90;;;;;;5017603;28;20940;-67
2021/11/20 17:16:51;;;;;;;13.23;11.87;;;8.30;99.90;;;;;;5016979;28;20479;-68
2021/11/20 17:19:19;;;;;;;64.33;34.30;;;8.30;99.90;;;;;;5017746;28;20541;-67
2021/11/20 17:21:46;;;;;;;40.47;22.90;;;8.20;99.90;;;;;;5017590;28;20936;-69
2021/11/20 17:24:13;;;;;;;32.47;21.70;;;8.10;99.90;;;;;;5017273;28;20458;-69
2021/11/20 17:26:40;;;;;;;14.33;12.80;;;8.10;99.90;;;;;;5016821;28;20474;-68
2021/11/20 17:29:08;;;;;;;13.20;11.87;;;8.00;99.90;;;;;;5016695;28;20453;-68
2021/11/20 17:31:36;;;;;;;16.60;13.20;;;8.00;99.90;;;;;;5016690;28;20477;-68
2021/11/20 17:34:03;;;;;;;16.40;14.60;;;7.90;99.90;;;;;;5017045;28;20457;-68
2021/11/20 17:36:32;;;;;;;14.70;12.43;;;7.90;99.90;;;;;;5016599;28;20979;-68
2021/11/20 17:38:59;;;;;;;12.13;11.03;;;7.90;99.90;;;;;;5017017;28;20459;-68
2021/11/20 17:41:26;;;;;;;11.50;10.50;;;7.90;99.90;;;;;;5032116;28;20509;-68
2021/11/20 17:43:52;;;;;;;13.57;12.30;;;7.90;99.90;;;;;;5036028;28;20433;-67
2021/11/20 17:46:19;;;;;;;15.00;13.50;;;7.90;99.90;;;;;;5017524;28;21004;-67
2021/11/20 17:48:46;;;;;;;14.07;12.70;;;7.90;99.90;;;;;;5016263;28;20504;-68
2021/11/20 17:51:13;;;;;;;13.50;12.17;;;7.90;99.90;;;;;;5016691;28;20485;-67
2021/11/20 17:53:41;;;;;;;14.40;12.90;;;7.90;99.90;;;;;;5021064;28;20948;-67
2021/11/20 17:56:09;;;;;;;13.50;12.17;;;7.90;99.90;;;;;;5022622;28;20461;-68
2021/11/20 17:58:36;;;;;;;15.07;11.90;;;7.90;99.90;;;;;;5021718;28;20462;-69
2021/11/20 18:01:06;;;;;;;13.37;12.07;;;7.90;99.90;;;;;;5020261;28;20856;-70